sensor_id;sensor_type;location;lat;lon;timestamp;temperature;humidity
30381;DHT22;17169;50.966;11.038;2023-04-24T00:02:48;13.10;99.90
30381;DHT22;17169;50.966;11.038;2023-04-24T00:05:51;13.00;99.90
30381;DHT22;17169;50.966;11.038;2023-04-24T00:08:53;13.00;99.90
30381;DHT22;17169;50.966;11.038;2023-04-24T00:11:56;13.00;99.90
30381;DHT22;17169;50.966;11.038;2023-04-24T00:14:58;13.00;99.90
30381;DHT22;17169;50.966;11.038;2023-04-24T00:18:02;13.00;99.90
30381;DHT22;17169;50.966;11.038;2023-04-24T00:21:05;12.90;99.90
30381;DHT22;17169;50.966;11.038;2023-04-24T00:24:08;12.90;99.90
30381;DHT22;17169;50.966;11.038;2023-04-24T00:27:11;12.80;99.90
30381;DHT22;17169;50.966;11.038;2023-04-24T00:30:13;12.80;99.90
30381;DHT22;17169;50.966;11.038;2023-04-24T00:33:17;12.80;99.90
30381;DHT22;17169;50.966;11.038;2023-04-24T00:36:19;12.80;99.90
30381;DHT22;17169;50.966;11.038;2023-04-24T00:39:22;12.70;99.90
30381;DHT22;17169;50.966;11.038;2023-04-24T00:42:25;12.70;99.90
30381;DHT22;17169;50.966;11.038;2023-04-24T00:45:28;12.60;99.90
30381;DHT22;17169;50.966;11.038;2023-04-24T00:48:34;12.60;99.90
30381;DHT22;17169;50.966;11.038;2023-04-24T00:51:36;12.60;99.90
30381;DHT22;17169;50.966;11.038;2023-04-24T00:54:39;12.60;99.90
30381;DHT22;17169;50.966;11.038;2023-04-24T00:57:41;12.60;99.90
30381;DHT22;17169;50.966;11.038;2023-04-24T01:00:44;12.70;99.90
30381;DHT22;17169;50.966;11.038;2023-04-24T01:03:49;12.70;99.90
30381;DHT22;17169;50.966;11.038;2023-04-24T01:06:53;12.70;99.90
30381;DHT22;17169;50.966;11.038;2023-04-24T01:09:56;12.70;99.90
30381;DHT22;17169;50.966;11.038;2023-04-24T01:12:59;12.70;99.90
30381;DHT22;17169;50.966;11.038;2023-04-24T01:16:02;12.70;99.90
30381;DHT22;17169;50.966;11.038;2023-04-24T01:19:06;12.70;99.90
30381;DHT22;17169;50.966;11.038;2023-04-24T01:22:12;12.70;99.90
30381;DHT22;17169;50.966;11.038;2023-04-24T01:25:15;12.70;99.90
30381;DHT22;17169;50.966;11.038;2023-04-24T01:28:18;12.70;99.90
30381;DHT22;17169;50.966;11.038;2023-04-24T01:31:20;12.70;99.90
30381;DHT22;17169;50.966;11.038;2023-04-24T01:34:23;12.70;99.90
30381;DHT22;17169;50.966;11.038;2023-04-24T01:37:27;12.70;99.90
30381;DHT22;17169;50.966;11.038;2023-04-24T01:40:29;12.70;99.90
30381;DHT22;17169;50.966;11.038;2023-04-24T01:43:32;12.70;99.90
30381;DHT22;17169;50.966;11.038;2023-04-24T01:46:35;12.60;99.90
30381;DHT22;17169;50.966;11.038;2023-04-24T01:49:38;12.60;99.90
30381;DHT22;17169;50.966;11.038;2023-04-24T01:52:42;12.70;99.90
30381;DHT22;17169;50.966;11.038;2023-04-24T01:55:44;12.60;99.90
30381;DHT22;17169;50.966;11.038;2023-04-24T01:58:47;12.70;99.90
30381;DHT22;17169;50.966;11.038;2023-04-24T02:01:50;12.60;99.90
30381;DHT22;17169;50.966;11.038;2023-04-24T02:04:52;12.60;99.90
30381;DHT22;17169;50.966;11.038;2023-04-24T02:07:56;12.60;99.90
30381;DHT22;17169;50.966;11.038;2023-04-24T02:10:58;12.60;99.90
30381;DHT22;17169;50.966;11.038;2023-04-24T02:14:02;12.50;99.90
30381;DHT22;17169;50.966;11.038;2023-04-24T02:17:04;12.50;99.90
30381;DHT22;17169;50.966;11.038;2023-04-24T02:20:07;12.40;99.90
30381;DHT22;17169;50.966;11.038;2023-04-24T02:23:11;12.40;99.90
30381;DHT22;17169;50.966;11.038;2023-04-24T02:26:14;12.30;99.90
30381;DHT22;17169;50.966;11.038;2023-04-24T02:29:17;12.30;99.90
30381;DHT22;17169;50.966;11.038;2023-04-24T02:32:19;12.30;99.90
30381;DHT22;17169;50.966;11.038;2023-04-24T02:35:22;12.20;99.90
30381;DHT22;17169;50.966;11.038;2023-04-24T02:38:26;12.20;99.90
30381;DHT22;17169;50.966;11.038;2023-04-24T02:41:28;12.20;99.90
30381;DHT22;17169;50.966;11.038;2023-04-24T02:44:33;12.20;99.90
30381;DHT22;17169;50.966;11.038;2023-04-24T02:47:36;12.20;99.90
30381;DHT22;17169;50.966;11.038;2023-04-24T02:50:38;12.20;99.90
30381;DHT22;17169;50.966;11.038;2023-04-24T02:53:42;12.20;99.90
30381;DHT22;17169;50.966;11.038;2023-04-24T02:56:44;12.10;99.90
30381;DHT22;17169;50.966;11.038;2023-04-24T02:59:47;12.10;99.90
30381;DHT22;17169;50.966;11.038;2023-04-24T03:02:49;12.10;99.90
30381;DHT22;17169;50.966;11.038;2023-04-24T03:05:52;12.10;99.90
30381;DHT22;17169;50.966;11.038;2023-04-24T03:08:55;12.00;99.90
30381;DHT22;17169;50.966;11.038;2023-04-24T03:11:58;12.00;99.90
30381;DHT22;17169;50.966;11.038;2023-04-24T03:15:01;12.10;99.90
30381;DHT22;17169;50.966;11.038;2023-04-24T03:18:03;12.10;99.90
30381;DHT22;17169;50.966;11.038;2023-04-24T03:21:06;12.10;99.90
30381;DHT22;17169;50.966;11.038;2023-04-24T03:24:10;12.20;99.90
30381;DHT22;17169;50.966;11.038;2023-04-24T03:27:12;12.20;99.90
30381;DHT22;17169;50.966;11.038;2023-04-24T03:30:14;12.20;99.90
30381;DHT22;17169;50.966;11.038;2023-04-24T03:33:17;12.20;99.90
30381;DHT22;17169;50.966;11.038;2023-04-24T03:36:19;12.20;99.90
30381;DHT22;17169;50.966;11.038;2023-04-24T03:39:23;12.20;99.90
30381;DHT22;17169;50.966;11.038;2023-04-24T03:42:26;12.20;99.90
30381;DHT22;17169;50.966;11.038;2023-04-24T03:45:28;12.30;99.90
30381;DHT22;17169;50.966;11.038;2023-04-24T03:48:30;12.30;99.90
30381;DHT22;17169;50.966;11.038;2023-04-24T03:51:33;12.30;99.90
30381;DHT22;17169;50.966;11.038;2023-04-24T03:54:36;12.20;99.90
30381;DHT22;17169;50.966;11.038;2023-04-24T03:57:39;12.20;99.90
30381;DHT22;17169;50.966;11.038;2023-04-24T04:00:41;12.30;99.90
30381;DHT22;17169;50.966;11.038;2023-04-24T04:03:45;12.30;99.90
30381;DHT22;17169;50.966;11.038;2023-04-24T04:06:48;12.20;99.90
30381;DHT22;17169;50.966;11.038;2023-04-24T04:09:51;12.20;99.90
30381;DHT22;17169;50.966;11.038;2023-04-24T04:12:54;12.30;99.90
30381;DHT22;17169;50.966;11.038;2023-04-24T04:15:56;12.30;99.90
30381;DHT22;17169;50.966;11.038;2023-04-24T04:18:58;12.30;99.90
30381;DHT22;17169;50.966;11.038;2023-04-24T04:22:01;12.30;99.90
30381;DHT22;17169;50.966;11.038;2023-04-24T04:25:05;12.40;99.90
30381;DHT22;17169;50.966;11.038;2023-04-24T04:28:07;12.40;99.90
30381;DHT22;17169;50.966;11.038;2023-04-24T04:31:10;12.40;99.90
30381;DHT22;17169;50.966;11.038;2023-04-24T04:34:12;12.40;99.90
30381;DHT22;17169;50.966;11.038;2023-04-24T04:37:15;12.50;99.90
30381;DHT22;17169;50.966;11.038;2023-04-24T04:40:19;12.50;99.90
30381;DHT22;17169;50.966;11.038;2023-04-24T04:43:22;12.50;99.90
30381;DHT22;17169;50.966;11.038;2023-04-24T04:46:25;12.50;99.90
30381;DHT22;17169;50.966;11.038;2023-04-24T04:49:28;12.60;99.90
30381;DHT22;17169;50.966;11.038;2023-04-24T04:52:30;12.60;99.90
30381;DHT22;17169;50.966;11.038;2023-04-24T04:55:34;12.50;99.90
30381;DHT22;17169;50.966;11.038;2023-04-24T04:58:36;12.60;99.90
30381;DHT22;17169;50.966;11.038;2023-04-24T05:01:39;12.50;99.90
30381;DHT22;17169;50.966;11.038;2023-04-24T05:04:41;12.60;99.90
30381;DHT22;17169;50.966;11.038;2023-04-24T05:07:44;12.60;99.90
30381;DHT22;17169;50.966;11.038;2023-04-24T05:10:48;12.60;99.90
30381;DHT22;17169;50.966;11.038;2023-04-24T05:13:50;12.60;99.90
30381;DHT22;17169;50.966;11.038;2023-04-24T05:16:52;12.60;99.90
30381;DHT22;17169;50.966;11.038;2023-04-24T05:19:55;12.60;99.90
30381;DHT22;17169;50.966;11.038;2023-04-24T05:22:57;12.60;99.90
30381;DHT22;17169;50.966;11.038;2023-04-24T05:26:01;12.60;99.90
30381;DHT22;17169;50.966;11.038;2023-04-24T05:29:03;12.70;99.90
30381;DHT22;17169;50.966;11.038;2023-04-24T05:32:06;12.70;99.90
30381;DHT22;17169;50.966;11.038;2023-04-24T05:35:08;12.80;99.90
30381;DHT22;17169;50.966;11.038;2023-04-24T05:38:11;12.90;99.90
30381;DHT22;17169;50.966;11.038;2023-04-24T05:41:14;12.90;99.90
30381;DHT22;17169;50.966;11.038;2023-04-24T05:44:17;13.00;99.90
30381;DHT22;17169;50.966;11.038;2023-04-24T05:47:19;13.10;99.90
30381;DHT22;17169;50.966;11.038;2023-04-24T05:50:22;13.10;99.90
30381;DHT22;17169;50.966;11.038;2023-04-24T05:53:25;13.10;99.90
30381;DHT22;17169;50.966;11.038;2023-04-24T05:56:29;13.10;99.90
30381;DHT22;17169;50.966;11.038;2023-04-24T05:59:31;13.10;99.90
30381;DHT22;17169;50.966;11.038;2023-04-24T06:02:34;13.20;99.90
30381;DHT22;17169;50.966;11.038;2023-04-24T06:05:36;13.30;99.90
30381;DHT22;17169;50.966;11.038;2023-04-24T06:08:39;13.40;99.90
30381;DHT22;17169;50.966;11.038;2023-04-24T06:11:42;13.50;99.90
30381;DHT22;17169;50.966;11.038;2023-04-24T06:14:45;13.50;99.90
30381;DHT22;17169;50.966;11.038;2023-04-24T06:17:47;13.50;99.90
30381;DHT22;17169;50.966;11.038;2023-04-24T06:20:50;13.40;99.90
30381;DHT22;17169;50.966;11.038;2023-04-24T06:23:53;13.40;99.90
30381;DHT22;17169;50.966;11.038;2023-04-24T06:26:58;13.40;99.90
30381;DHT22;17169;50.966;11.038;2023-04-24T06:30:01;13.30;99.90
30381;DHT22;17169;50.966;11.038;2023-04-24T06:33:04;13.40;99.90
30381;DHT22;17169;50.966;11.038;2023-04-24T06:36:06;13.50;99.90
30381;DHT22;17169;50.966;11.038;2023-04-24T06:39:09;13.60;99.90
30381;DHT22;17169;50.966;11.038;2023-04-24T06:42:12;13.60;99.90
30381;DHT22;17169;50.966;11.038;2023-04-24T06:45:15;13.60;99.90
30381;DHT22;17169;50.966;11.038;2023-04-24T06:48:17;13.60;99.90
30381;DHT22;17169;50.966;11.038;2023-04-24T06:51:20;13.60;99.90
30381;DHT22;17169;50.966;11.038;2023-04-24T06:54:22;13.50;99.90
30381;DHT22;17169;50.966;11.038;2023-04-24T06:57:26;13.60;99.90
30381;DHT22;17169;50.966;11.038;2023-04-24T07:00:28;13.50;99.90
30381;DHT22;17169;50.966;11.038;2023-04-24T07:03:31;13.40;99.90
30381;DHT22;17169;50.966;11.038;2023-04-24T07:06:33;13.40;99.90
30381;DHT22;17169;50.966;11.038;2023-04-24T07:09:36;13.40;99.90
30381;DHT22;17169;50.966;11.038;2023-04-24T07:12:43;13.30;99.90
30381;DHT22;17169;50.966;11.038;2023-04-24T07:15:45;13.30;99.90
30381;DHT22;17169;50.966;11.038;2023-04-24T07:18:50;13.20;99.90
30381;DHT22;17169;50.966;11.038;2023-04-24T07:21:52;13.10;99.90
30381;DHT22;17169;50.966;11.038;2023-04-24T07:24:56;13.10;99.90
30381;DHT22;17169;50.966;11.038;2023-04-24T07:27:59;13.10;99.90
30381;DHT22;17169;50.966;11.038;2023-04-24T07:31:02;13.20;99.90
30381;DHT22;17169;50.966;11.038;2023-04-24T07:34:04;13.20;99.90
30381;DHT22;17169;50.966;11.038;2023-04-24T07:37:06;13.20;99.90
30381;DHT22;17169;50.966;11.038;2023-04-24T07:40:10;13.20;99.90
30381;DHT22;17169;50.966;11.038;2023-04-24T07:43:14;13.30;99.90
30381;DHT22;17169;50.966;11.038;2023-04-24T07:46:16;13.30;99.90
30381;DHT22;17169;50.966;11.038;2023-04-24T07:49:19;13.20;99.90
30381;DHT22;17169;50.966;11.038;2023-04-24T07:52:21;13.10;99.90
30381;DHT22;17169;50.966;11.038;2023-04-24T07:55:23;13.10;99.90
30381;DHT22;17169;50.966;11.038;2023-04-24T07:58:27;13.20;99.90
30381;DHT22;17169;50.966;11.038;2023-04-24T08:01:29;13.30;99.90
30381;DHT22;17169;50.966;11.038;2023-04-24T08:04:32;13.40;99.90
30381;DHT22;17169;50.966;11.038;2023-04-24T08:07:34;13.50;99.90
30381;DHT22;17169;50.966;11.038;2023-04-24T08:10:37;13.70;99.90
30381;DHT22;17169;50.966;11.038;2023-04-24T08:13:41;13.60;99.70
30381;DHT22;17169;50.966;11.038;2023-04-24T08:16:43;13.70;99.60
30381;DHT22;17169;50.966;11.038;2023-04-24T08:19:46;13.70;99.20
30381;DHT22;17169;50.966;11.038;2023-04-24T08:22:49;13.70;99.30
30381;DHT22;17169;50.966;11.038;2023-04-24T08:25:51;13.70;99.10
30381;DHT22;17169;50.966;11.038;2023-04-24T08:28:55;13.60;99.00
30381;DHT22;17169;50.966;11.038;2023-04-24T08:31:58;13.50;97.90
30381;DHT22;17169;50.966;11.038;2023-04-24T08:35:00;13.50;97.80
30381;DHT22;17169;50.966;11.038;2023-04-24T08:38:02;13.50;96.50
30381;DHT22;17169;50.966;11.038;2023-04-24T08:41:05;13.50;95.50
30381;DHT22;17169;50.966;11.038;2023-04-24T08:44:10;13.50;95.90
30381;DHT22;17169;50.966;11.038;2023-04-24T08:47:15;13.60;96.20
30381;DHT22;17169;50.966;11.038;2023-04-24T08:50:17;13.60;95.90
30381;DHT22;17169;50.966;11.038;2023-04-24T08:53:20;13.50;95.80
30381;DHT22;17169;50.966;11.038;2023-04-24T08:56:22;13.50;96.10
30381;DHT22;17169;50.966;11.038;2023-04-24T08:59:27;13.60;95.70
30381;DHT22;17169;50.966;11.038;2023-04-24T09:02:30;13.80;95.60
30381;DHT22;17169;50.966;11.038;2023-04-24T09:05:35;14.00;95.30
30381;DHT22;17169;50.966;11.038;2023-04-24T09:08:38;13.90;94.30
30381;DHT22;17169;50.966;11.038;2023-04-24T09:11:41;13.90;94.80
30381;DHT22;17169;50.966;11.038;2023-04-24T09:14:45;13.80;93.60
30381;DHT22;17169;50.966;11.038;2023-04-24T09:17:47;13.70;93.40
30381;DHT22;17169;50.966;11.038;2023-04-24T09:21:01;13.80;93.20
30381;DHT22;17169;50.966;11.038;2023-04-24T09:24:05;13.80;93.30
30381;DHT22;17169;50.966;11.038;2023-04-24T09:27:11;13.90;92.90
30381;DHT22;17169;50.966;11.038;2023-04-24T09:30:21;14.00;93.40
30381;DHT22;17169;50.966;11.038;2023-04-24T09:33:24;14.10;93.20
30381;DHT22;17169;50.966;11.038;2023-04-24T09:36:30;14.30;93.30
30381;DHT22;17169;50.966;11.038;2023-04-24T09:39:34;14.30;93.00
30381;DHT22;17169;50.966;11.038;2023-04-24T09:42:36;14.30;92.70
30381;DHT22;17169;50.966;11.038;2023-04-24T09:45:40;14.30;92.70
30381;DHT22;17169;50.966;11.038;2023-04-24T09:48:42;14.50;92.00
30381;DHT22;17169;50.966;11.038;2023-04-24T09:51:45;14.70;91.60
30381;DHT22;17169;50.966;11.038;2023-04-24T09:54:52;14.90;91.00
30381;DHT22;17169;50.966;11.038;2023-04-24T09:57:56;15.10;90.70
30381;DHT22;17169;50.966;11.038;2023-04-24T10:01:00;15.40;90.20
30381;DHT22;17169;50.966;11.038;2023-04-24T10:04:02;15.50;90.80
30381;DHT22;17169;50.966;11.038;2023-04-24T10:07:05;15.70;89.70
30381;DHT22;17169;50.966;11.038;2023-04-24T10:10:09;15.90;88.90
30381;DHT22;17169;50.966;11.038;2023-04-24T10:13:12;16.10;87.00
30381;DHT22;17169;50.966;11.038;2023-04-24T10:16:17;16.20;87.50
30381;DHT22;17169;50.966;11.038;2023-04-24T10:19:19;16.00;86.80
30381;DHT22;17169;50.966;11.038;2023-04-24T10:22:23;15.90;86.90
30381;DHT22;17169;50.966;11.038;2023-04-24T10:25:27;16.10;87.70
30381;DHT22;17169;50.966;11.038;2023-04-24T10:28:30;16.00;86.00
30381;DHT22;17169;50.966;11.038;2023-04-24T10:31:36;15.90;85.10
30381;DHT22;17169;50.966;11.038;2023-04-24T10:34:39;15.90;85.00
30381;DHT22;17169;50.966;11.038;2023-04-24T10:37:44;15.80;84.20
30381;DHT22;17169;50.966;11.038;2023-04-24T10:40:47;15.80;85.30
30381;DHT22;17169;50.966;11.038;2023-04-24T10:44:04;15.70;85.90
30381;DHT22;17169;50.966;11.038;2023-04-24T10:47:13;15.70;84.40
30381;DHT22;17169;50.966;11.038;2023-04-24T10:50:15;15.80;85.90
30381;DHT22;17169;50.966;11.038;2023-04-24T10:53:19;15.90;85.30
30381;DHT22;17169;50.966;11.038;2023-04-24T10:56:24;15.80;84.90
30381;DHT22;17169;50.966;11.038;2023-04-24T10:59:27;15.60;85.80
30381;DHT22;17169;50.966;11.038;2023-04-24T11:02:40;15.50;86.30
30381;DHT22;17169;50.966;11.038;2023-04-24T11:05:50;15.50;85.10
30381;DHT22;17169;50.966;11.038;2023-04-24T11:09:01;15.60;86.00
30381;DHT22;17169;50.966;11.038;2023-04-24T11:12:06;15.90;84.50
30381;DHT22;17169;50.966;11.038;2023-04-24T11:15:10;16.40;86.00
30381;DHT22;17169;50.966;11.038;2023-04-24T11:18:15;16.50;82.40
30381;DHT22;17169;50.966;11.038;2023-04-24T11:21:18;16.50;83.30
30381;DHT22;17169;50.966;11.038;2023-04-24T11:24:28;16.60;82.10
30381;DHT22;17169;50.966;11.038;2023-04-24T11:27:37;17.00;82.20
30381;DHT22;17169;50.966;11.038;2023-04-24T11:30:40;17.10;81.50
30381;DHT22;17169;50.966;11.038;2023-04-24T11:33:44;17.00;82.00
30381;DHT22;17169;50.966;11.038;2023-04-24T11:36:47;16.80;81.70
30381;DHT22;17169;50.966;11.038;2023-04-24T11:39:53;16.80;82.50
30381;DHT22;17169;50.966;11.038;2023-04-24T11:42:55;16.60;80.90
30381;DHT22;17169;50.966;11.038;2023-04-24T11:45:59;16.30;82.90
30381;DHT22;17169;50.966;11.038;2023-04-24T11:49:03;16.20;83.90
30381;DHT22;17169;50.966;11.038;2023-04-24T11:52:06;16.20;84.80
30381;DHT22;17169;50.966;11.038;2023-04-24T11:55:23;16.20;84.60
30381;DHT22;17169;50.966;11.038;2023-04-24T11:58:27;16.30;85.90
30381;DHT22;17169;50.966;11.038;2023-04-24T12:01:29;16.50;84.20
30381;DHT22;17169;50.966;11.038;2023-04-24T12:04:40;16.50;85.30
30381;DHT22;17169;50.966;11.038;2023-04-24T12:07:42;16.80;84.70
30381;DHT22;17169;50.966;11.038;2023-04-24T12:10:51;16.90;83.70
30381;DHT22;17169;50.966;11.038;2023-04-24T12:13:54;16.90;83.80
30381;DHT22;17169;50.966;11.038;2023-04-24T12:16:56;17.00;83.80
30381;DHT22;17169;50.966;11.038;2023-04-24T12:20:02;17.00;83.40
30381;DHT22;17169;50.966;11.038;2023-04-24T12:23:04;17.00;84.10
30381;DHT22;17169;50.966;11.038;2023-04-24T12:26:06;17.30;83.90
30381;DHT22;17169;50.966;11.038;2023-04-24T12:29:09;17.50;82.40
30381;DHT22;17169;50.966;11.038;2023-04-24T12:32:16;17.40;82.10
30381;DHT22;17169;50.966;11.038;2023-04-24T12:35:22;17.40;82.70
30381;DHT22;17169;50.966;11.038;2023-04-24T12:38:26;17.20;83.40
30381;DHT22;17169;50.966;11.038;2023-04-24T12:41:31;17.00;82.60
30381;DHT22;17169;50.966;11.038;2023-04-24T12:44:33;16.60;83.40
30381;DHT22;17169;50.966;11.038;2023-04-24T12:47:38;16.40;84.20
30381;DHT22;17169;50.966;11.038;2023-04-24T12:50:42;16.10;85.90
30381;DHT22;17169;50.966;11.038;2023-04-24T12:53:45;15.70;89.40
30381;DHT22;17169;50.966;11.038;2023-04-24T12:56:47;15.40;90.90
30381;DHT22;17169;50.966;11.038;2023-04-24T12:59:49;15.50;91.40
30381;DHT22;17169;50.966;11.038;2023-04-24T13:02:52;15.70;91.20
30381;DHT22;17169;50.966;11.038;2023-04-24T13:05:55;15.70;91.10
30381;DHT22;17169;50.966;11.038;2023-04-24T13:08:58;16.00;90.50
30381;DHT22;17169;50.966;11.038;2023-04-24T13:12:00;16.70;90.50
30381;DHT22;17169;50.966;11.038;2023-04-24T13:15:04;17.30;87.30
30381;DHT22;17169;50.966;11.038;2023-04-24T13:18:06;17.80;84.50
30381;DHT22;17169;50.966;11.038;2023-04-24T13:21:10;18.70;83.80
30381;DHT22;17169;50.966;11.038;2023-04-24T13:24:12;18.90;83.00
30381;DHT22;17169;50.966;11.038;2023-04-24T13:27:17;18.50;82.70
30381;DHT22;17169;50.966;11.038;2023-04-24T13:30:19;18.00;84.30
30381;DHT22;17169;50.966;11.038;2023-04-24T13:33:22;17.60;85.00
30381;DHT22;17169;50.966;11.038;2023-04-24T13:36:25;17.50;85.70
30381;DHT22;17169;50.966;11.038;2023-04-24T13:39:28;16.80;86.70
30381;DHT22;17169;50.966;11.038;2023-04-24T13:45:48;19.00;84.30
30381;DHT22;17169;50.966;11.038;2023-04-24T13:48:50;19.00;81.70
30381;DHT22;17169;50.966;11.038;2023-04-24T13:51:55;18.30;83.10
30381;DHT22;17169;50.966;11.038;2023-04-24T13:54:58;17.60;84.20
30381;DHT22;17169;50.966;11.038;2023-04-24T13:58:00;16.80;90.50
30381;DHT22;17169;50.966;11.038;2023-04-24T14:01:03;16.10;91.40
30381;DHT22;17169;50.966;11.038;2023-04-24T14:04:05;15.80;93.20
30381;DHT22;17169;50.966;11.038;2023-04-24T14:07:09;17.50;92.10
30381;DHT22;17169;50.966;11.038;2023-04-24T14:10:11;18.80;89.10
30381;DHT22;17169;50.966;11.038;2023-04-24T14:13:14;19.30;87.10
30381;DHT22;17169;50.966;11.038;2023-04-24T14:16:16;18.60;87.90
30381;DHT22;17169;50.966;11.038;2023-04-24T14:19:19;17.90;87.40
30381;DHT22;17169;50.966;11.038;2023-04-24T14:22:23;17.40;88.70
30381;DHT22;17169;50.966;11.038;2023-04-24T14:25:25;17.20;89.20
30381;DHT22;17169;50.966;11.038;2023-04-24T14:28:28;16.60;87.90
30381;DHT22;17169;50.966;11.038;2023-04-24T14:31:30;16.10;89.50
30381;DHT22;17169;50.966;11.038;2023-04-24T14:34:32;15.80;90.00
30381;DHT22;17169;50.966;11.038;2023-04-24T14:37:36;15.40;90.20
30381;DHT22;17169;50.966;11.038;2023-04-24T14:40:39;15.20;90.50
30381;DHT22;17169;50.966;11.038;2023-04-24T14:43:41;15.00;90.60
30381;DHT22;17169;50.966;11.038;2023-04-24T14:46:45;15.00;91.00
30381;DHT22;17169;50.966;11.038;2023-04-24T14:49:48;14.80;91.70
30381;DHT22;17169;50.966;11.038;2023-04-24T14:52:51;14.90;91.90
30381;DHT22;17169;50.966;11.038;2023-04-24T14:55:54;15.40;91.40
30381;DHT22;17169;50.966;11.038;2023-04-24T14:58:56;15.30;91.70
30381;DHT22;17169;50.966;11.038;2023-04-24T15:01:58;15.10;92.00
30381;DHT22;17169;50.966;11.038;2023-04-24T15:05:01;14.90;92.20
30381;DHT22;17169;50.966;11.038;2023-04-24T15:08:05;14.80;92.30
30381;DHT22;17169;50.966;11.038;2023-04-24T15:11:07;14.90;92.50
30381;DHT22;17169;50.966;11.038;2023-04-24T15:14:10;15.30;92.30
30381;DHT22;17169;50.966;11.038;2023-04-24T15:17:12;15.20;91.60
30381;DHT22;17169;50.966;11.038;2023-04-24T15:20:15;15.10;91.80
30381;DHT22;17169;50.966;11.038;2023-04-24T15:23:20;15.10;91.90
30381;DHT22;17169;50.966;11.038;2023-04-24T15:26:23;15.50;91.40
30381;DHT22;17169;50.966;11.038;2023-04-24T15:29:26;15.40;90.90
30381;DHT22;17169;50.966;11.038;2023-04-24T15:32:28;15.30;91.10
30381;DHT22;17169;50.966;11.038;2023-04-24T15:35:30;15.10;91.10
30381;DHT22;17169;50.966;11.038;2023-04-24T15:38:34;14.90;90.60
30381;DHT22;17169;50.966;11.038;2023-04-24T15:41:36;14.70;90.30
30381;DHT22;17169;50.966;11.038;2023-04-24T15:44:39;15.20;90.80
30381;DHT22;17169;50.966;11.038;2023-04-24T15:47:41;15.70;88.90
30381;DHT22;17169;50.966;11.038;2023-04-24T15:50:43;16.70;87.20
30381;DHT22;17169;50.966;11.038;2023-04-24T15:53:47;16.50;84.10
30381;DHT22;17169;50.966;11.038;2023-04-24T15:56:50;16.70;83.10
30381;DHT22;17169;50.966;11.038;2023-04-24T15:59:52;17.10;82.80
30381;DHT22;17169;50.966;11.038;2023-04-24T16:02:55;18.30;82.10
30381;DHT22;17169;50.966;11.038;2023-04-24T16:05:58;18.60;79.80
30381;DHT22;17169;50.966;11.038;2023-04-24T16:09:02;17.80;79.80
30381;DHT22;17169;50.966;11.038;2023-04-24T16:12:05;17.10;81.70
30381;DHT22;17169;50.966;11.038;2023-04-24T16:15:08;16.70;82.70
30381;DHT22;17169;50.966;11.038;2023-04-24T16:18:10;16.00;84.10
30381;DHT22;17169;50.966;11.038;2023-04-24T16:21:13;15.40;85.80
30381;DHT22;17169;50.966;11.038;2023-04-24T16:24:17;15.00;86.80
30381;DHT22;17169;50.966;11.038;2023-04-24T16:27:19;14.60;88.40
30381;DHT22;17169;50.966;11.038;2023-04-24T16:30:22;14.50;88.60
30381;DHT22;17169;50.966;11.038;2023-04-24T16:33:25;14.80;89.00
30381;DHT22;17169;50.966;11.038;2023-04-24T16:36:27;16.00;87.40
30381;DHT22;17169;50.966;11.038;2023-04-24T16:39:31;15.80;86.80
30381;DHT22;17169;50.966;11.038;2023-04-24T16:42:33;15.30;88.00
30381;DHT22;17169;50.966;11.038;2023-04-24T16:45:36;14.90;88.90
30381;DHT22;17169;50.966;11.038;2023-04-24T16:48:38;14.50;89.60
30381;DHT22;17169;50.966;11.038;2023-04-24T16:51:40;14.10;90.30
30381;DHT22;17169;50.966;11.038;2023-04-24T16:54:44;13.90;91.30
30381;DHT22;17169;50.966;11.038;2023-04-24T16:57:47;13.70;91.80
30381;DHT22;17169;50.966;11.038;2023-04-24T17:00:49;13.50;92.20
30381;DHT22;17169;50.966;11.038;2023-04-24T17:03:51;13.30;92.60
30381;DHT22;17169;50.966;11.038;2023-04-24T17:06:54;13.20;92.90
30381;DHT22;17169;50.966;11.038;2023-04-24T17:09:58;13.00;93.10
30381;DHT22;17169;50.966;11.038;2023-04-24T17:13:00;12.90;93.60
30381;DHT22;17169;50.966;11.038;2023-04-24T17:16:03;13.20;93.80
30381;DHT22;17169;50.966;11.038;2023-04-24T17:19:06;14.10;93.00
30381;DHT22;17169;50.966;11.038;2023-04-24T17:22:08;14.00;92.60
30381;DHT22;17169;50.966;11.038;2023-04-24T17:25:12;13.90;92.40
30381;DHT22;17169;50.966;11.038;2023-04-24T17:28:22;13.60;92.70
30381;DHT22;17169;50.966;11.038;2023-04-24T17:31:26;13.40;93.00
30381;DHT22;17169;50.966;11.038;2023-04-24T17:34:28;13.20;93.10
30381;DHT22;17169;50.966;11.038;2023-04-24T17:37:32;13.10;93.30
30381;DHT22;17169;50.966;11.038;2023-04-24T17:40:36;13.00;93.40
30381;DHT22;17169;50.966;11.038;2023-04-24T17:43:39;12.90;93.60
30381;DHT22;17169;50.966;11.038;2023-04-24T17:46:41;12.80;93.70
30381;DHT22;17169;50.966;11.038;2023-04-24T17:49:44;12.70;93.90
30381;DHT22;17169;50.966;11.038;2023-04-24T17:52:46;12.60;94.20
30381;DHT22;17169;50.966;11.038;2023-04-24T17:55:50;12.60;94.30
30381;DHT22;17169;50.966;11.038;2023-04-24T17:58:54;12.50;94.40
30381;DHT22;17169;50.966;11.038;2023-04-24T18:01:58;12.50;94.70
30381;DHT22;17169;50.966;11.038;2023-04-24T18:05:00;12.40;94.60
30381;DHT22;17169;50.966;11.038;2023-04-24T18:08:04;12.30;94.80
30381;DHT22;17169;50.966;11.038;2023-04-24T18:11:08;12.20;95.00
30381;DHT22;17169;50.966;11.038;2023-04-24T18:14:10;12.10;95.20
30381;DHT22;17169;50.966;11.038;2023-04-24T18:17:12;12.10;95.20
30381;DHT22;17169;50.966;11.038;2023-04-24T18:20:16;12.10;95.60
30381;DHT22;17169;50.966;11.038;2023-04-24T18:23:19;12.00;95.80
30381;DHT22;17169;50.966;11.038;2023-04-24T18:26:23;12.00;95.80
30381;DHT22;17169;50.966;11.038;2023-04-24T18:29:25;12.00;95.80
30381;DHT22;17169;50.966;11.038;2023-04-24T18:32:27;12.10;96.00
30381;DHT22;17169;50.966;11.038;2023-04-24T18:35:30;12.10;96.00
30381;DHT22;17169;50.966;11.038;2023-04-24T18:38:32;12.10;96.10
30381;DHT22;17169;50.966;11.038;2023-04-24T18:41:38;12.10;96.20
30381;DHT22;17169;50.966;11.038;2023-04-24T18:44:40;12.20;96.10
30381;DHT22;17169;50.966;11.038;2023-04-24T18:47:43;12.20;96.10
30381;DHT22;17169;50.966;11.038;2023-04-24T18:50:46;12.20;96.10
30381;DHT22;17169;50.966;11.038;2023-04-24T18:53:48;12.10;96.00
30381;DHT22;17169;50.966;11.038;2023-04-24T18:56:52;12.10;95.90
30381;DHT22;17169;50.966;11.038;2023-04-24T18:59:55;12.10;96.30
30381;DHT22;17169;50.966;11.038;2023-04-24T19:02:57;12.10;95.90